sensor_id;sensor_type;location;lat;lon;timestamp;P1;durP1;ratioP1;P2;durP2;ratioP2
80163;SDS011;70071;55.130;61.268;2023-05-20T00:00:40;3.70;;;2.42;;
80163;SDS011;70071;55.130;61.268;2023-05-20T00:03:06;4.95;;;2.70;;
80163;SDS011;70071;55.130;61.268;2023-05-20T00:05:31;8.48;;;2.60;;
80163;SDS011;70071;55.130;61.268;2023-05-20T00:07:57;4.65;;;2.53;;
80163;SDS011;70071;55.130;61.268;2023-05-20T00:10:24;4.00;;;2.00;;
80163;SDS011;70071;55.130;61.268;2023-05-20T00:12:50;7.97;;;3.17;;
80163;SDS011;70071;55.130;61.268;2023-05-20T00:15:16;4.55;;;2.50;;
80163;SDS011;70071;55.130;61.268;2023-05-20T00:17:42;4.38;;;2.42;;
80163;SDS011;70071;55.130;61.268;2023-05-20T00:20:08;3.53;;;2.00;;
80163;SDS011;70071;55.130;61.268;2023-05-20T00:22:34;5.13;;;2.08;;
80163;SDS011;70071;55.130;61.268;2023-05-20T00:25:00;3.13;;;2.55;;
80163;SDS011;70071;55.130;61.268;2023-05-20T00:27:26;4.93;;;2.40;;
80163;SDS011;70071;55.130;61.268;2023-05-20T00:29:51;3.42;;;1.70;;
80163;SDS011;70071;55.130;61.268;2023-05-20T00:32:17;8.88;;;2.38;;
80163;SDS011;70071;55.130;61.268;2023-05-20T00:34:43;5.35;;;2.00;;
80163;SDS011;70071;55.130;61.268;2023-05-20T00:37:09;4.97;;;2.10;;
80163;SDS011;70071;55.130;61.268;2023-05-20T00:39:35;2.95;;;1.80;;
80163;SDS011;70071;55.130;61.268;2023-05-20T00:42:01;4.60;;;1.90;;
80163;SDS011;70071;55.130;61.268;2023-05-20T00:44:28;4.30;;;2.30;;
80163;SDS011;70071;55.130;61.268;2023-05-20T00:46:54;6.35;;;2.10;;
80163;SDS011;70071;55.130;61.268;2023-05-20T00:49:20;3.78;;;2.08;;
80163;SDS011;70071;55.130;61.268;2023-05-20T00:51:48;6.60;;;2.20;;
80163;SDS011;70071;55.130;61.268;2023-05-20T00:54:14;5.88;;;2.15;;
80163;SDS011;70071;55.130;61.268;2023-05-20T00:56:40;3.80;;;1.50;;
80163;SDS011;70071;55.130;61.268;2023-05-20T00:59:07;4.20;;;2.33;;
80163;SDS011;70071;55.130;61.268;2023-05-20T01:01:33;3.40;;;1.88;;
80163;SDS011;70071;55.130;61.268;2023-05-20T01:03:59;3.72;;;2.10;;
80163;SDS011;70071;55.130;61.268;2023-05-20T01:06:25;4.55;;;2.13;;
80163;SDS011;70071;55.130;61.268;2023-05-20T01:08:52;3.10;;;1.52;;
80163;SDS011;70071;55.130;61.268;2023-05-20T01:13:57;4.63;;;2.13;;
80163;SDS011;70071;55.130;61.268;2023-05-20T01:16:27;6.15;;;2.15;;
80163;SDS011;70071;55.130;61.268;2023-05-20T01:18:55;4.75;;;2.35;;
80163;SDS011;70071;55.130;61.268;2023-05-20T01:21:23;2.80;;;1.80;;
80163;SDS011;70071;55.130;61.268;2023-05-20T01:23:51;3.80;;;2.08;;
80163;SDS011;70071;55.130;61.268;2023-05-20T01:26:17;6.63;;;2.30;;
80163;SDS011;70071;55.130;61.268;2023-05-20T01:28:43;5.30;;;2.30;;
80163;SDS011;70071;55.130;61.268;2023-05-20T01:31:10;3.78;;;2.10;;
80163;SDS011;70071;55.130;61.268;2023-05-20T01:33:44;4.35;;;2.47;;
80163;SDS011;70071;55.130;61.268;2023-05-20T01:36:14;5.78;;;2.47;;
80163;SDS011;70071;55.130;61.268;2023-05-20T01:38:41;5.38;;;2.83;;
80163;SDS011;70071;55.130;61.268;2023-05-20T01:41:07;5.93;;;2.00;;
80163;SDS011;70071;55.130;61.268;2023-05-20T01:43:34;4.82;;;2.22;;
80163;SDS011;70071;55.130;61.268;2023-05-20T01:46:04;4.38;;;2.22;;
80163;SDS011;70071;55.130;61.268;2023-05-20T01:48:31;6.72;;;2.47;;
80163;SDS011;70071;55.130;61.268;2023-05-20T01:50:56;3.50;;;2.13;;
80163;SDS011;70071;55.130;61.268;2023-05-20T01:53:22;4.72;;;2.35;;
80163;SDS011;70071;55.130;61.268;2023-05-20T01:55:48;3.92;;;1.67;;
80163;SDS011;70071;55.130;61.268;2023-05-20T01:58:14;5.28;;;2.13;;
80163;SDS011;70071;55.130;61.268;2023-05-20T02:00:40;6.10;;;2.03;;
80163;SDS011;70071;55.130;61.268;2023-05-20T02:03:06;3.63;;;2.10;;
80163;SDS011;70071;55.130;61.268;2023-05-20T02:05:32;6.80;;;2.20;;
80163;SDS011;70071;55.130;61.268;2023-05-20T02:07:57;3.08;;;1.80;;
80163;SDS011;70071;55.130;61.268;2023-05-20T02:10:23;5.10;;;2.20;;
80163;SDS011;70071;55.130;61.268;2023-05-20T02:12:49;7.25;;;2.30;;
80163;SDS011;70071;55.130;61.268;2023-05-20T02:15:15;3.35;;;2.10;;
80163;SDS011;70071;55.130;61.268;2023-05-20T02:17:41;3.53;;;2.05;;
80163;SDS011;70071;55.130;61.268;2023-05-20T02:20:11;5.75;;;2.00;;
80163;SDS011;70071;55.130;61.268;2023-05-20T02:22:38;5.68;;;3.13;;
80163;SDS011;70071;55.130;61.268;2023-05-20T02:25:03;3.85;;;2.38;;
80163;SDS011;70071;55.130;61.268;2023-05-20T02:29:56;6.88;;;2.30;;
80163;SDS011;70071;55.130;61.268;2023-05-20T02:32:21;4.20;;;2.13;;
80163;SDS011;70071;55.130;61.268;2023-05-20T02:34:53;3.28;;;1.80;;
80163;SDS011;70071;55.130;61.268;2023-05-20T02:37:19;3.70;;;2.13;;
80163;SDS011;70071;55.130;61.268;2023-05-20T02:39:45;3.65;;;2.20;;
80163;SDS011;70071;55.130;61.268;2023-05-20T02:42:11;6.93;;;2.00;;
80163;SDS011;70071;55.130;61.268;2023-05-20T02:44:37;4.90;;;2.40;;
80163;SDS011;70071;55.130;61.268;2023-05-20T02:47:03;5.32;;;2.88;;
80163;SDS011;70071;55.130;61.268;2023-05-20T02:49:29;2.72;;;1.70;;
80163;SDS011;70071;55.130;61.268;2023-05-20T02:51:55;6.00;;;2.08;;
80163;SDS011;70071;55.130;61.268;2023-05-20T02:54:21;7.45;;;2.42;;
80163;SDS011;70071;55.130;61.268;2023-05-20T02:56:47;3.88;;;2.10;;
80163;SDS011;70071;55.130;61.268;2023-05-20T02:59:13;5.30;;;2.30;;
80163;SDS011;70071;55.130;61.268;2023-05-20T03:01:39;5.07;;;1.80;;
80163;SDS011;70071;55.130;61.268;2023-05-20T03:04:05;5.95;;;2.10;;
80163;SDS011;70071;55.130;61.268;2023-05-20T03:06:31;5.43;;;2.88;;
80163;SDS011;70071;55.130;61.268;2023-05-20T03:08:58;6.78;;;2.15;;
80163;SDS011;70071;55.130;61.268;2023-05-20T03:11:23;3.55;;;1.88;;
80163;SDS011;70071;55.130;61.268;2023-05-20T03:13:50;2.88;;;1.73;;
80163;SDS011;70071;55.130;61.268;2023-05-20T03:16:16;5.03;;;2.17;;
80163;SDS011;70071;55.130;61.268;2023-05-20T03:18:42;6.35;;;2.30;;
80163;SDS011;70071;55.130;61.268;2023-05-20T03:21:08;6.28;;;2.13;;
80163;SDS011;70071;55.130;61.268;2023-05-20T03:23:34;5.43;;;2.72;;
80163;SDS011;70071;55.130;61.268;2023-05-20T03:26:01;5.78;;;2.30;;
80163;SDS011;70071;55.130;61.268;2023-05-20T03:28:27;6.07;;;2.35;;
80163;SDS011;70071;55.130;61.268;2023-05-20T03:30:53;5.15;;;1.90;;
80163;SDS011;70071;55.130;61.268;2023-05-20T03:33:19;5.57;;;2.15;;
80163;SDS011;70071;55.130;61.268;2023-05-20T03:35:45;9.98;;;5.70;;
80163;SDS011;70071;55.130;61.268;2023-05-20T03:38:11;5.85;;;2.97;;
80163;SDS011;70071;55.130;61.268;2023-05-20T03:40:37;5.15;;;2.72;;
80163;SDS011;70071;55.130;61.268;2023-05-20T03:43:03;4.35;;;2.15;;
80163;SDS011;70071;55.130;61.268;2023-05-20T03:45:29;3.72;;;1.98;;
80163;SDS011;70071;55.130;61.268;2023-05-20T03:47:54;5.10;;;2.55;;
80163;SDS011;70071;55.130;61.268;2023-05-20T03:50:20;5.18;;;2.30;;
80163;SDS011;70071;55.130;61.268;2023-05-20T03:52:46;4.25;;;1.85;;
80163;SDS011;70071;55.130;61.268;2023-05-20T03:55:12;5.30;;;2.15;;
80163;SDS011;70071;55.130;61.268;2023-05-20T03:57:38;6.43;;;2.70;;
80163;SDS011;70071;55.130;61.268;2023-05-20T04:00:04;3.60;;;1.83;;
80163;SDS011;70071;55.130;61.268;2023-05-20T04:02:35;4.82;;;2.10;;
80163;SDS011;70071;55.130;61.268;2023-05-20T04:05:02;5.13;;;1.90;;
80163;SDS011;70071;55.130;61.268;2023-05-20T04:07:30;6.05;;;1.98;;
80163;SDS011;70071;55.130;61.268;2023-05-20T04:09:55;7.88;;;1.98;;
80163;SDS011;70071;55.130;61.268;2023-05-20T04:12:23;7.00;;;2.00;;
80163;SDS011;70071;55.130;61.268;2023-05-20T04:14:58;6.65;;;2.25;;
80163;SDS011;70071;55.130;61.268;2023-05-20T04:17:30;5.68;;;2.55;;
80163;SDS011;70071;55.130;61.268;2023-05-20T04:19:56;5.90;;;2.40;;
80163;SDS011;70071;55.130;61.268;2023-05-20T04:22:24;2.70;;;1.65;;
80163;SDS011;70071;55.130;61.268;2023-05-20T04:24:51;4.38;;;2.00;;
80163;SDS011;70071;55.130;61.268;2023-05-20T04:27:17;5.85;;;1.85;;
80163;SDS011;70071;55.130;61.268;2023-05-20T04:29:42;5.88;;;1.83;;
80163;SDS011;70071;55.130;61.268;2023-05-20T04:32:12;6.03;;;2.50;;
80163;SDS011;70071;55.130;61.268;2023-05-20T04:34:38;4.25;;;1.70;;
80163;SDS011;70071;55.130;61.268;2023-05-20T04:37:05;6.88;;;2.05;;
80163;SDS011;70071;55.130;61.268;2023-05-20T04:39:33;7.72;;;2.10;;
80163;SDS011;70071;55.130;61.268;2023-05-20T04:42:00;4.72;;;2.22;;
80163;SDS011;70071;55.130;61.268;2023-05-20T04:44:27;4.05;;;2.28;;
80163;SDS011;70071;55.130;61.268;2023-05-20T04:46:54;6.80;;;2.40;;
80163;SDS011;70071;55.130;61.268;2023-05-20T04:49:22;8.55;;;2.60;;
80163;SDS011;70071;55.130;61.268;2023-05-20T04:51:51;6.57;;;2.70;;
80163;SDS011;70071;55.130;61.268;2023-05-20T04:54:19;9.80;;;3.05;;
80163;SDS011;70071;55.130;61.268;2023-05-20T04:56:49;6.38;;;2.38;;
80163;SDS011;70071;55.130;61.268;2023-05-20T04:59:15;5.20;;;2.67;;
80163;SDS011;70071;55.130;61.268;2023-05-20T05:01:41;7.22;;;2.03;;
80163;SDS011;70071;55.130;61.268;2023-05-20T05:04:07;5.20;;;1.90;;
80163;SDS011;70071;55.130;61.268;2023-05-20T05:06:33;5.10;;;1.80;;
80163;SDS011;70071;55.130;61.268;2023-05-20T05:08:59;5.93;;;2.15;;
80163;SDS011;70071;55.130;61.268;2023-05-20T05:11:25;6.05;;;1.90;;
80163;SDS011;70071;55.130;61.268;2023-05-20T05:13:51;5.15;;;1.98;;
80163;SDS011;70071;55.130;61.268;2023-05-20T05:16:20;7.00;;;1.77;;
80163;SDS011;70071;55.130;61.268;2023-05-20T05:18:46;4.53;;;2.30;;
80163;SDS011;70071;55.130;61.268;2023-05-20T05:21:12;5.60;;;1.85;;
80163;SDS011;70071;55.130;61.268;2023-05-20T05:23:38;4.78;;;2.20;;
80163;SDS011;70071;55.130;61.268;2023-05-20T05:26:04;5.55;;;2.50;;
80163;SDS011;70071;55.130;61.268;2023-05-20T05:28:30;4.22;;;2.33;;
80163;SDS011;70071;55.130;61.268;2023-05-20T05:30:55;8.30;;;2.47;;
80163;SDS011;70071;55.130;61.268;2023-05-20T05:33:21;3.05;;;1.65;;
80163;SDS011;70071;55.130;61.268;2023-05-20T05:35:47;4.60;;;1.85;;
80163;SDS011;70071;55.130;61.268;2023-05-20T05:38:13;4.97;;;1.73;;
80163;SDS011;70071;55.130;61.268;2023-05-20T05:40:39;3.88;;;1.83;;
80163;SDS011;70071;55.130;61.268;2023-05-20T05:43:05;4.80;;;1.63;;
80163;SDS011;70071;55.130;61.268;2023-05-20T05:45:31;3.97;;;2.03;;
80163;SDS011;70071;55.130;61.268;2023-05-20T05:47:57;3.65;;;1.92;;
80163;SDS011;70071;55.130;61.268;2023-05-20T05:50:23;2.88;;;1.30;;
80163;SDS011;70071;55.130;61.268;2023-05-20T05:52:49;4.80;;;1.80;;
80163;SDS011;70071;55.130;61.268;2023-05-20T05:55:15;5.15;;;1.38;;
80163;SDS011;70071;55.130;61.268;2023-05-20T05:57:42;2.35;;;1.02;;
80163;SDS011;70071;55.130;61.268;2023-05-20T06:00:08;3.15;;;1.30;;
80163;SDS011;70071;55.130;61.268;2023-05-20T06:02:34;4.05;;;1.33;;
80163;SDS011;70071;55.130;61.268;2023-05-20T06:05:03;5.65;;;1.30;;
80163;SDS011;70071;55.130;61.268;2023-05-20T06:07:31;2.97;;;1.00;;
80163;SDS011;70071;55.130;61.268;2023-05-20T06:09:56;8.07;;;1.63;;
80163;SDS011;70071;55.130;61.268;2023-05-20T06:12:23;5.18;;;1.17;;
80163;SDS011;70071;55.130;61.268;2023-05-20T06:14:48;3.83;;;1.02;;
80163;SDS011;70071;55.130;61.268;2023-05-20T06:17:14;4.40;;;1.17;;
80163;SDS011;70071;55.130;61.268;2023-05-20T06:19:40;4.25;;;1.35;;
80163;SDS011;70071;55.130;61.268;2023-05-20T06:22:06;3.40;;;1.55;;
80163;SDS011;70071;55.130;61.268;2023-05-20T06:24:32;4.22;;;1.00;;
80163;SDS011;70071;55.130;61.268;2023-05-20T06:26:58;2.22;;;1.10;;
80163;SDS011;70071;55.130;61.268;2023-05-20T06:29:36;3.83;;;1.02;;
80163;SDS011;70071;55.130;61.268;2023-05-20T06:32:04;3.53;;;1.13;;
80163;SDS011;70071;55.130;61.268;2023-05-20T06:34:30;4.18;;;1.35;;
80163;SDS011;70071;55.130;61.268;2023-05-20T06:36:56;3.10;;;1.65;;
80163;SDS011;70071;55.130;61.268;2023-05-20T06:39:22;4.63;;;1.58;;
80163;SDS011;70071;55.130;61.268;2023-05-20T06:41:48;5.22;;;1.40;;
80163;SDS011;70071;55.130;61.268;2023-05-20T06:44:16;5.68;;;1.17;;
80163;SDS011;70071;55.130;61.268;2023-05-20T06:46:43;5.25;;;1.10;;
80163;SDS011;70071;55.130;61.268;2023-05-20T06:49:09;3.63;;;0.90;;
80163;SDS011;70071;55.130;61.268;2023-05-20T06:51:35;4.00;;;1.17;;
80163;SDS011;70071;55.130;61.268;2023-05-20T06:54:01;4.43;;;1.13;;
80163;SDS011;70071;55.130;61.268;2023-05-20T06:56:27;2.42;;;1.17;;
80163;SDS011;70071;55.130;61.268;2023-05-20T06:58:53;2.65;;;1.10;;
80163;SDS011;70071;55.130;61.268;2023-05-20T07:01:19;3.53;;;1.50;;
80163;SDS011;70071;55.130;61.268;2023-05-20T07:03:45;4.25;;;0.93;;
80163;SDS011;70071;55.130;61.268;2023-05-20T07:06:11;2.25;;;1.00;;
80163;SDS011;70071;55.130;61.268;2023-05-20T07:08:37;5.35;;;1.75;;
80163;SDS011;70071;55.130;61.268;2023-05-20T07:11:03;4.13;;;1.70;;
80163;SDS011;70071;55.130;61.268;2023-05-20T07:13:29;4.40;;;1.83;;
80163;SDS011;70071;55.130;61.268;2023-05-20T07:15:55;5.63;;;1.67;;
80163;SDS011;70071;55.130;61.268;2023-05-20T07:18:21;4.78;;;1.80;;
80163;SDS011;70071;55.130;61.268;2023-05-20T07:20:47;5.75;;;1.80;;
80163;SDS011;70071;55.130;61.268;2023-05-20T07:23:13;4.57;;;1.55;;
80163;SDS011;70071;55.130;61.268;2023-05-20T07:25:38;3.75;;;1.20;;
80163;SDS011;70071;55.130;61.268;2023-05-20T07:30:30;3.28;;;0.82;;
80163;SDS011;70071;55.130;61.268;2023-05-20T07:32:56;2.05;;;1.33;;
80163;SDS011;70071;55.130;61.268;2023-05-20T07:35:22;4.55;;;1.50;;
80163;SDS011;70071;55.130;61.268;2023-05-20T07:37:48;3.92;;;1.13;;
80163;SDS011;70071;55.130;61.268;2023-05-20T07:40:15;3.72;;;1.50;;
80163;SDS011;70071;55.130;61.268;2023-05-20T07:42:40;2.25;;;1.63;;
80163;SDS011;70071;55.130;61.268;2023-05-20T07:45:06;6.05;;;1.70;;
80163;SDS011;70071;55.130;61.268;2023-05-20T07:47:33;3.65;;;1.23;;
80163;SDS011;70071;55.130;61.268;2023-05-20T07:52:25;2.05;;;1.10;;
80163;SDS011;70071;55.130;61.268;2023-05-20T07:54:51;3.40;;;1.15;;
80163;SDS011;70071;55.130;61.268;2023-05-20T07:57:16;5.13;;;1.42;;
80163;SDS011;70071;55.130;61.268;2023-05-20T07:59:42;4.30;;;1.58;;
80163;SDS011;70071;55.130;61.268;2023-05-20T08:02:09;2.55;;;1.15;;
80163;SDS011;70071;55.130;61.268;2023-05-20T08:04:35;4.15;;;1.08;;
80163;SDS011;70071;55.130;61.268;2023-05-20T08:09:26;4.65;;;1.30;;
80163;SDS011;70071;55.130;61.268;2023-05-20T08:11:52;1.95;;;1.20;;
80163;SDS011;70071;55.130;61.268;2023-05-20T08:14:18;7.50;;;1.92;;
80163;SDS011;70071;55.130;61.268;2023-05-20T08:16:44;3.50;;;1.30;;
80163;SDS011;70071;55.130;61.268;2023-05-20T08:19:10;2.55;;;1.30;;
80163;SDS011;70071;55.130;61.268;2023-05-20T08:21:36;4.68;;;1.30;;
80163;SDS011;70071;55.130;61.268;2023-05-20T08:24:02;5.25;;;1.70;;
80163;SDS011;70071;55.130;61.268;2023-05-20T08:26:29;8.60;;;2.90;;
80163;SDS011;70071;55.130;61.268;2023-05-20T08:28:54;6.30;;;2.38;;
80163;SDS011;70071;55.130;61.268;2023-05-20T08:31:20;5.75;;;4.50;;
80163;SDS011;70071;55.130;61.268;2023-05-20T08:33:46;5.63;;;3.20;;
80163;SDS011;70071;55.130;61.268;2023-05-20T08:36:12;5.20;;;3.40;;
80163;SDS011;70071;55.130;61.268;2023-05-20T08:38:38;7.47;;;2.72;;
80163;SDS011;70071;55.130;61.268;2023-05-20T08:41:04;6.13;;;2.15;;
80163;SDS011;70071;55.130;61.268;2023-05-20T08:43:30;4.53;;;3.88;;
80163;SDS011;70071;55.130;61.268;2023-05-20T08:45:56;6.53;;;4.25;;
80163;SDS011;70071;55.130;61.268;2023-05-20T08:48:24;6.55;;;2.53;;
80163;SDS011;70071;55.130;61.268;2023-05-20T08:50:52;6.20;;;1.90;;
80163;SDS011;70071;55.130;61.268;2023-05-20T08:53:21;2.95;;;1.48;;
80163;SDS011;70071;55.130;61.268;2023-05-20T08:55:51;2.95;;;1.10;;
80163;SDS011;70071;55.130;61.268;2023-05-20T08:58:20;5.50;;;1.58;;
80163;SDS011;70071;55.130;61.268;2023-05-20T09:00:47;3.30;;;1.45;;
80163;SDS011;70071;55.130;61.268;2023-05-20T09:03:13;6.10;;;1.90;;
80163;SDS011;70071;55.130;61.268;2023-05-20T09:05:39;5.53;;;1.33;;
80163;SDS011;70071;55.130;61.268;2023-05-20T09:08:09;2.45;;;1.27;;
80163;SDS011;70071;55.130;61.268;2023-05-20T09:10:39;4.63;;;1.30;;
80163;SDS011;70071;55.130;61.268;2023-05-20T09:13:06;5.18;;;1.25;;
80163;SDS011;70071;55.130;61.268;2023-05-20T09:15:33;3.83;;;1.00;;
80163;SDS011;70071;55.130;61.268;2023-05-20T09:18:01;4.25;;;1.25;;
80163;SDS011;70071;55.130;61.268;2023-05-20T09:20:28;4.70;;;1.67;;
80163;SDS011;70071;55.130;61.268;2023-05-20T09:22:57;2.88;;;1.35;;
80163;SDS011;70071;55.130;61.268;2023-05-20T09:25:24;2.35;;;1.25;;
80163;SDS011;70071;55.130;61.268;2023-05-20T09:30:19;5.47;;;1.70;;
80163;SDS011;70071;55.130;61.268;2023-05-20T09:32:45;5.18;;;1.70;;
80163;SDS011;70071;55.130;61.268;2023-05-20T09:35:17;1.67;;;0.88;;
80163;SDS011;70071;55.130;61.268;2023-05-20T09:37:43;5.18;;;1.45;;
80163;SDS011;70071;55.130;61.268;2023-05-20T09:40:12;4.63;;;1.70;;
80163;SDS011;70071;55.130;61.268;2023-05-20T09:45:28;2.30;;;1.42;;
80163;SDS011;70071;55.130;61.268;2023-05-20T09:47:54;3.92;;;1.73;;
80163;SDS011;70071;55.130;61.268;2023-05-20T09:50:22;5.18;;;1.65;;
80163;SDS011;70071;55.130;61.268;2023-05-20T09:52:49;4.00;;;1.88;;
80163;SDS011;70071;55.130;61.268;2023-05-20T09:55:17;2.63;;;1.38;;
80163;SDS011;70071;55.130;61.268;2023-05-20T09:57:46;6.82;;;2.00;;
80163;SDS011;70071;55.130;61.268;2023-05-20T10:00:13;5.00;;;1.27;;
80163;SDS011;70071;55.130;61.268;2023-05-20T10:02:45;6.88;;;1.90;;
80163;SDS011;70071;55.130;61.268;2023-05-20T10:05:17;5.68;;;1.90;;
80163;SDS011;70071;55.130;61.268;2023-05-20T10:13:27;2.58;;;1.50;;
80163;SDS011;70071;55.130;61.268;2023-05-20T10:18:49;4.88;;;1.95;;
80163;SDS011;70071;55.130;61.268;2023-05-20T10:21:36;4.22;;;1.88;;
80163;SDS011;70071;55.130;61.268;2023-05-20T10:24:06;5.18;;;2.00;;
80163;SDS011;70071;55.130;61.268;2023-05-20T10:26:36;8.02;;;2.40;;
80163;SDS011;70071;55.130;61.268;2023-05-20T10:29:16;6.30;;;1.90;;
80163;SDS011;70071;55.130;61.268;2023-05-20T10:31:43;3.60;;;1.58;;
80163;SDS011;70071;55.130;61.268;2023-05-20T10:34:16;5.70;;;1.52;;
80163;SDS011;70071;55.130;61.268;2023-05-20T10:39:23;2.55;;;1.45;;
80163;SDS011;70071;55.130;61.268;2023-05-20T10:42:06;1.95;;;1.27;;
80163;SDS011;70071;55.130;61.268;2023-05-20T10:44:42;3.20;;;1.55;;
80163;SDS011;70071;55.130;61.268;2023-05-20T10:47:12;5.32;;;1.88;;
80163;SDS011;70071;55.130;61.268;2023-05-20T10:49:39;2.42;;;1.33;;
80163;SDS011;70071;55.130;61.268;2023-05-20T10:52:13;3.78;;;1.60;;
80163;SDS011;70071;55.130;61.268;2023-05-20T10:54:43;3.53;;;1.92;;
80163;SDS011;70071;55.130;61.268;2023-05-20T10:57:11;2.60;;;1.30;;
80163;SDS011;70071;55.130;61.268;2023-05-20T10:59:37;2.97;;;1.83;;
80163;SDS011;70071;55.130;61.268;2023-05-20T11:02:03;3.75;;;1.80;;
80163;SDS011;70071;55.130;61.268;2023-05-20T11:04:29;4.20;;;1.30;;
80163;SDS011;70071;55.130;61.268;2023-05-20T11:06:56;3.35;;;1.52;;
80163;SDS011;70071;55.130;61.268;2023-05-20T11:09:23;3.10;;;1.48;;
80163;SDS011;70071;55.130;61.268;2023-05-20T11:11:50;4.35;;;1.85;;
80163;SDS011;70071;55.130;61.268;2023-05-20T11:14:17;5.22;;;1.88;;
80163;SDS011;70071;55.130;61.268;2023-05-20T11:16:44;5.82;;;1.67;;
80163;SDS011;70071;55.130;61.268;2023-05-20T11:19:14;3.63;;;1.63;;
80163;SDS011;70071;55.130;61.268;2023-05-20T11:21:41;4.05;;;1.80;;
80163;SDS011;70071;55.130;61.268;2023-05-20T11:24:08;4.68;;;1.95;;
80163;SDS011;70071;55.130;61.268;2023-05-20T11:26:35;3.33;;;1.75;;
80163;SDS011;70071;55.130;61.268;2023-05-20T11:29:01;2.70;;;1.40;;
80163;SDS011;70071;55.130;61.268;2023-05-20T11:31:27;3.15;;;1.38;;
80163;SDS011;70071;55.130;61.268;2023-05-20T11:33:53;2.78;;;1.40;;
80163;SDS011;70071;55.130;61.268;2023-05-20T11:36:19;6.18;;;1.73;;
80163;SDS011;70071;55.130;61.268;2023-05-20T11:38:46;4.78;;;1.70;;
80163;SDS011;70071;55.130;61.268;2023-05-20T11:41:12;6.18;;;2.00;;
80163;SDS011;70071;55.130;61.268;2023-05-20T11:43:38;7.30;;;2.40;;
80163;SDS011;70071;55.130;61.268;2023-05-20T11:46:07;2.88;;;1.60;;
80163;SDS011;70071;55.130;61.268;2023-05-20T11:48:34;4.07;;;2.10;;
80163;SDS011;70071;55.130;61.268;2023-05-20T11:51:00;5.30;;;2.13;;
80163;SDS011;70071;55.130;61.268;2023-05-20T11:53:27;3.58;;;1.80;;
80163;SDS011;70071;55.130;61.268;2023-05-20T11:55:54;3.55;;;1.60;;
80163;SDS011;70071;55.130;61.268;2023-05-20T11:58:22;3.13;;;1.73;;
80163;SDS011;70071;55.130;61.268;2023-05-20T12:00:53;2.63;;;1.58;;
80163;SDS011;70071;55.130;61.268;2023-05-20T12:03:19;3.08;;;1.88;;
80163;SDS011;70071;55.130;61.268;2023-05-20T12:05:45;2.67;;;1.63;;
80163;SDS011;70071;55.130;61.268;2023-05-20T12:08:12;3.90;;;1.90;;
80163;SDS011;70071;55.130;61.268;2023-05-20T12:10:39;5.88;;;2.38;;
80163;SDS011;70071;55.130;61.268;2023-05-20T12:13:05;6.25;;;3.20;;
80163;SDS011;70071;55.130;61.268;2023-05-20T12:15:35;5.53;;;2.83;;
80163;SDS011;70071;55.130;61.268;2023-05-20T12:18:02;4.57;;;2.40;;
80163;SDS011;70071;55.130;61.268;2023-05-20T12:20:28;4.82;;;2.15;;
80163;SDS011;70071;55.130;61.268;2023-05-20T12:22:56;4.22;;;1.85;;
80163;SDS011;70071;55.130;61.268;2023-05-20T12:25:22;3.65;;;2.05;;
80163;SDS011;70071;55.130;61.268;2023-05-20T12:27:48;3.40;;;2.05;;
80163;SDS011;70071;55.130;61.268;2023-05-20T12:30:15;5.18;;;2.05;;
80163;SDS011;70071;55.130;61.268;2023-05-20T12:32:46;5.18;;;1.90;;
80163;SDS011;70071;55.130;61.268;2023-05-20T12:35:14;4.60;;;2.63;;
80163;SDS011;70071;55.130;61.268;2023-05-20T12:37:41;2.75;;;2.03;;
80163;SDS011;70071;55.130;61.268;2023-05-20T12:40:08;11.82;;;3.53;;
80163;SDS011;70071;55.130;61.268;2023-05-20T12:42:37;6.95;;;2.83;;
80163;SDS011;70071;55.130;61.268;2023-05-20T12:45:04;3.55;;;2.50;;
80163;SDS011;70071;55.130;61.268;2023-05-20T12:47:32;4.65;;;1.90;;
80163;SDS011;70071;55.130;61.268;2023-05-20T12:49:58;3.83;;;2.10;;
80163;SDS011;70071;55.130;61.268;2023-05-20T12:52:25;4.63;;;3.13;;
80163;SDS011;70071;55.130;61.268;2023-05-20T12:54:54;6.20;;;3.08;;
80163;SDS011;70071;55.130;61.268;2023-05-20T12:57:21;6.25;;;3.05;;
80163;SDS011;70071;55.130;61.268;2023-05-20T12:59:48;4.43;;;2.55;;
80163;SDS011;70071;55.130;61.268;2023-05-20T13:02:14;5.60;;;2.70;;
80163;SDS011;70071;55.130;61.268;2023-05-20T13:04:40;4.15;;;2.60;;
80163;SDS011;70071;55.130;61.268;2023-05-20T13:07:05;3.22;;;2.30;;
80163;SDS011;70071;55.130;61.268;2023-05-20T13:09:31;4.90;;;2.33;;
80163;SDS011;70071;55.130;61.268;2023-05-20T13:11:59;4.38;;;2.10;;
80163;SDS011;70071;55.130;61.268;2023-05-20T13:14:26;2.95;;;2.20;;
80163;SDS011;70071;55.130;61.268;2023-05-20T13:16:52;4.93;;;2.35;;
80163;SDS011;70071;55.130;61.268;2023-05-20T13:19:22;5.80;;;1.70;;
80163;SDS011;70071;55.130;61.268;2023-05-20T13:21:49;2.97;;;1.70;;
80163;SDS011;70071;55.130;61.268;2023-05-20T13:24:16;3.97;;;2.15;;
80163;SDS011;70071;55.130;61.268;2023-05-20T13:26:42;2.47;;;1.90;;
80163;SDS011;70071;55.130;61.268;2023-05-20T13:29:10;3.38;;;2.08;;
80163;SDS011;70071;55.130;61.268;2023-05-20T13:31:36;2.28;;;1.70;;
80163;SDS011;70071;55.130;61.268;2023-05-20T13:34:03;3.85;;;1.73;;
80163;SDS011;70071;55.130;61.268;2023-05-20T13:36:29;4.18;;;2.08;;
80163;SDS011;70071;55.130;61.268;2023-05-20T13:38:55;5.38;;;2.83;;
80163;SDS011;70071;55.130;61.268;2023-05-20T13:41:21;3.65;;;2.58;;
80163;SDS011;70071;55.130;61.268;2023-05-20T13:43:49;2.50;;;1.98;;
80163;SDS011;70071;55.130;61.268;2023-05-20T13:46:15;4.53;;;2.53;;
80163;SDS011;70071;55.130;61.268;2023-05-20T13:48:41;4.80;;;2.50;;
80163;SDS011;70071;55.130;61.268;2023-05-20T13:51:07;3.60;;;2.13;;
80163;SDS011;70071;55.130;61.268;2023-05-20T13:53:33;3.53;;;2.10;;
80163;SDS011;70071;55.130;61.268;2023-05-20T13:55:59;3.33;;;1.77;;
80163;SDS011;70071;55.130;61.268;2023-05-20T13:58:25;3.13;;;1.88;;
80163;SDS011;70071;55.130;61.268;2023-05-20T14:00:51;4.65;;;2.25;;
80163;SDS011;70071;55.130;61.268;2023-05-20T14:03:18;4.03;;;2.22;;
80163;SDS011;70071;55.130;61.268;2023-05-20T14:05:44;5.43;;;2.40;;
80163;SDS011;70071;55.130;61.268;2023-05-20T14:08:11;3.95;;;3.38;;
80163;SDS011;70071;55.130;61.268;2023-05-20T14:10:37;4.03;;;3.17;;
80163;SDS011;70071;55.130;61.268;2023-05-20T14:13:03;3.85;;;3.38;;
80163;SDS011;70071;55.130;61.268;2023-05-20T14:15:29;7.72;;;3.28;;
80163;SDS011;70071;55.130;61.268;2023-05-20T14:17:56;6.63;;;2.53;;
80163;SDS011;70071;55.130;61.268;2023-05-20T14:20:25;4.00;;;2.58;;
80163;SDS011;70071;55.130;61.268;2023-05-20T14:22:51;4.95;;;2.63;;
80163;SDS011;70071;55.130;61.268;2023-05-20T14:25:17;4.60;;;2.25;;
80163;SDS011;70071;55.130;61.268;2023-05-20T14:27:43;3.78;;;2.47;;
80163;SDS011;70071;55.130;61.268;2023-05-20T14:30:09;4.18;;;2.40;;
80163;SDS011;70071;55.130;61.268;2023-05-20T14:32:36;5.35;;;3.45;;
80163;SDS011;70071;55.130;61.268;2023-05-20T14:35:02;7.25;;;5.38;;
80163;SDS011;70071;55.130;61.268;2023-05-20T14:37:30;8.63;;;5.40;;
80163;SDS011;70071;55.130;61.268;2023-05-20T14:39:56;7.80;;;5.57;;
80163;SDS011;70071;55.130;61.268;2023-05-20T14:42:22;4.15;;;3.65;;
80163;SDS011;70071;55.130;61.268;2023-05-20T14:44:48;4.88;;;2.72;;
80163;SDS011;70071;55.130;61.268;2023-05-20T14:47:14;4.22;;;3.60;;
80163;SDS011;70071;55.130;61.268;2023-05-20T14:49:44;6.80;;;4.10;;
80163;SDS011;70071;55.130;61.268;2023-05-20T14:52:10;5.72;;;4.25;;
80163;SDS011;70071;55.130;61.268;2023-05-20T14:54:36;5.97;;;4.13;;
80163;SDS011;70071;55.130;61.268;2023-05-20T14:57:02;8.10;;;4.93;;
80163;SDS011;70071;55.130;61.268;2023-05-20T14:59:31;7.57;;;4.53;;